createdAt,value
2018-11-10T00:02:08.447Z,6.79
2018-11-10T00:04:40.837Z,6.76
2018-11-10T00:07:08.913Z,6.73
2018-11-10T00:09:37.037Z,6.72
2018-11-10T00:12:05.635Z,6.70
2018-11-10T00:14:33.684Z,6.68
2018-11-10T00:17:01.757Z,6.69
2018-11-10T00:19:30.352Z,6.68
2018-11-10T00:21:58.459Z,6.68
2018-11-10T00:24:26.580Z,6.68
2018-11-10T00:26:55.065Z,6.66
2018-11-10T00:29:23.144Z,6.66
2018-11-10T00:31:51.216Z,6.66
2018-11-10T00:34:19.647Z,6.65
2018-11-10T00:36:47.734Z,6.65
2018-11-10T00:39:15.819Z,6.63
2018-11-10T00:41:44.321Z,6.61
2018-11-10T00:44:12.445Z,6.58
2018-11-10T00:46:40.548Z,6.56
2018-11-10T00:49:09.098Z,6.31
2018-11-10T00:51:37.231Z,6.51
2018-11-10T00:54:05.868Z,6.51
2018-11-10T00:56:34.397Z,6.50
2018-11-10T00:59:02.614Z,6.29
2018-11-10T01:01:30.801Z,6.48
2018-11-10T01:03:59.386Z,6.49
2018-11-10T01:06:27.450Z,6.49
2018-11-10T01:08:55.504Z,6.49
2018-11-10T01:11:23.981Z,6.49
2018-11-10T01:13:52.049Z,6.46
2018-11-10T01:16:20.117Z,6.48
2018-11-10T01:18:48.713Z,6.50
2018-11-10T01:21:16.764Z,6.54
2018-11-10T01:23:45.049Z,6.55
2018-11-10T01:26:14.319Z,6.55
2018-11-10T01:28:42.645Z,6.25
2018-11-10T01:31:10.885Z,6.49
2018-11-10T01:33:39.062Z,6.44
2018-11-10T01:36:07.105Z,6.40
2018-11-10T01:38:35.149Z,6.38
2018-11-10T01:41:03.713Z,6.33
2018-11-10T01:43:32.018Z,6.27
2018-11-10T01:46:00.456Z,6.23
2018-11-10T01:48:28.960Z,6.15
2018-11-10T01:50:57.221Z,6.06
2018-11-10T01:53:25.324Z,5.94
2018-11-10T01:55:53.753Z,5.79
2018-11-10T01:58:22.832Z,5.68
2018-11-10T02:00:51.797Z,5.59
2018-11-10T02:03:20.224Z,5.52
2018-11-10T02:05:48.349Z,5.45
2018-11-10T02:08:16.433Z,5.39
2018-11-10T02:10:45.349Z,5.12
2018-11-10T02:13:13.555Z,5.32
2018-11-10T02:15:41.763Z,5.22
2018-11-10T02:18:10.252Z,5.34
2018-11-10T02:20:38.356Z,5.35
2018-11-10T02:23:06.846Z,5.37
2018-11-10T02:25:35.122Z,5.38
2018-11-10T02:28:03.500Z,5.43
2018-11-10T02:30:32.187Z,5.45
2018-11-10T02:33:00.269Z,5.48
2018-11-10T02:35:29.103Z,5.51
2018-11-10T02:37:57.514Z,5.52
2018-11-10T02:40:25.614Z,5.55
2018-11-10T02:42:53.720Z,5.60
2018-11-10T02:45:22.135Z,5.63
2018-11-10T02:47:50.961Z,5.67
2018-11-10T02:50:19.281Z,5.71
2018-11-10T02:52:48.136Z,5.75
2018-11-10T02:55:16.411Z,5.80
2018-11-10T02:57:44.484Z,5.83
2018-11-10T03:00:13.650Z,5.94
2018-11-10T03:02:42.223Z,6.04
2018-11-10T03:05:10.913Z,6.14
2018-11-10T03:07:39.516Z,6.23
2018-11-10T03:10:09.135Z,6.27
2018-11-10T03:12:38.324Z,6.35
2018-11-10T03:15:07.300Z,6.40
2018-11-10T03:17:35.537Z,6.44
2018-11-10T03:20:04.185Z,6.49
2018-11-10T03:22:32.356Z,6.52
2018-11-10T03:25:00.389Z,6.56
2018-11-10T03:27:28.818Z,6.54
2018-11-10T03:29:57.636Z,6.57
2018-11-10T03:32:27.277Z,6.59
2018-11-10T03:34:56.776Z,6.60
2018-11-10T03:37:24.812Z,6.52
2018-11-10T03:39:52.876Z,6.53
2018-11-10T03:42:20.925Z,6.65
2018-11-10T03:44:48.956Z,6.68
2018-11-10T03:47:17.020Z,6.67
2018-11-10T03:49:45.476Z,6.68
2018-11-10T03:52:13.578Z,6.66
2018-11-10T03:54:41.772Z,6.52
2018-11-10T03:57:10.364Z,6.36
2018-11-10T03:59:38.516Z,6.26
2018-11-10T04:02:06.683Z,6.19
2018-11-10T04:04:34.756Z,6.12
2018-11-10T04:07:02.962Z,6.08
2018-11-10T04:09:31.528Z,6.03
2018-11-10T04:11:59.622Z,5.98
2018-11-10T04:14:27.676Z,5.96
2018-11-10T04:16:55.695Z,5.96
2018-11-10T04:19:23.815Z,5.95
2018-11-10T04:21:52.085Z,5.97
2018-11-10T04:24:20.151Z,5.97
2018-11-10T04:26:48.776Z,5.98
2018-11-10T04:29:16.918Z,6.04
2018-11-10T04:31:44.977Z,6.08
2018-11-10T04:34:13.385Z,6.09
2018-11-10T04:36:41.417Z,6.07
2018-11-10T04:39:09.536Z,6.04
2018-11-10T04:41:38.453Z,6.02
2018-11-10T04:44:06.670Z,6.01
2018-11-10T04:46:34.809Z,6.01
2018-11-10T04:49:03.000Z,6.02
2018-11-10T04:51:31.582Z,6.03
2018-11-10T04:53:59.741Z,6.07
2018-11-10T04:56:28.349Z,6.04
2018-11-10T04:58:56.723Z,6.16
2018-11-10T05:01:24.830Z,6.15
2018-11-10T05:03:52.885Z,6.12
2018-11-10T05:06:21.601Z,6.08
2018-11-10T05:08:49.816Z,5.94
2018-11-10T05:11:23.795Z,5.85
2018-11-10T05:13:57.626Z,5.69
2018-11-10T05:16:25.845Z,5.50
2018-11-10T05:18:54.114Z,5.33
2018-11-10T05:21:22.503Z,4.68
2018-11-10T05:23:51.181Z,5.06
2018-11-10T05:26:19.807Z,4.97
2018-11-10T05:28:47.907Z,4.75
2018-11-10T05:31:16.169Z,4.77
2018-11-10T05:33:44.132Z,4.67
2018-11-10T05:36:12.172Z,4.59
2018-11-10T05:38:40.200Z,4.54
2018-11-10T05:41:08.384Z,4.50
2018-11-10T05:43:36.438Z,4.47
2018-11-10T05:46:04.773Z,4.40
2018-11-10T05:48:33.052Z,3.83
2018-11-10T05:51:01.662Z,4.39
2018-11-10T05:53:29.953Z,4.37
2018-11-10T05:55:58.003Z,4.36
2018-11-10T05:58:26.128Z,4.38
2018-11-10T06:00:54.500Z,4.44
2018-11-10T06:03:22.631Z,4.52
2018-11-10T06:05:50.743Z,4.56
2018-11-10T06:08:19.125Z,4.47
2018-11-10T06:10:47.315Z,4.59
2018-11-10T06:13:15.532Z,3.25
2018-11-10T06:15:44.016Z,4.55
2018-11-10T06:18:12.474Z,4.55
2018-11-10T06:20:41.155Z,4.50
2018-11-10T06:23:09.457Z,4.44
2018-11-10T06:25:38.309Z,4.48
2018-11-10T06:28:08.228Z,4.15
2018-11-10T06:30:36.744Z,4.07
2018-11-10T06:33:05.721Z,4.24
2018-11-10T06:35:33.928Z,4.13
2018-11-10T06:38:03.142Z,4.32
2018-11-10T06:40:33.218Z,4.00
2018-11-10T06:43:03.244Z,4.31
2018-11-10T06:45:32.808Z,4.19
2018-11-10T06:48:03.522Z,4.30
2018-11-10T06:50:31.805Z,4.33
2018-11-10T06:53:00.867Z,4.36
2018-11-10T06:55:29.100Z,4.39
2018-11-10T06:57:57.395Z,4.38
2018-11-10T07:00:25.975Z,4.35
2018-11-10T07:02:54.029Z,4.37
2018-11-10T07:05:23.413Z,4.40
2018-11-10T07:07:51.761Z,4.44
2018-11-10T07:10:19.881Z,4.49
2018-11-10T07:12:47.996Z,4.52
2018-11-10T07:15:16.402Z,4.57
2018-11-10T07:17:44.824Z,4.64
2018-11-10T07:20:12.877Z,4.54
2018-11-10T07:22:41.445Z,4.69
2018-11-10T07:25:10.015Z,4.77
2018-11-10T07:27:38.072Z,4.79
2018-11-10T07:30:08.326Z,4.81
2018-11-10T07:32:36.469Z,4.79
2018-11-10T07:35:04.829Z,4.61
2018-11-10T07:37:33.366Z,4.72
2018-11-10T07:40:01.481Z,4.74
2018-11-10T07:42:29.778Z,4.61
2018-11-10T07:44:58.156Z,4.92
2018-11-10T07:47:26.967Z,5.01
2018-11-10T07:49:55.068Z,4.67
2018-11-10T07:52:28.067Z,5.23
2018-11-10T07:55:00.127Z,5.36
2018-11-10T07:57:30.553Z,5.28
2018-11-10T08:00:00.136Z,5.63
2018-11-10T08:02:34.332Z,5.80
2018-11-10T08:05:08.367Z,5.96
2018-11-10T08:07:40.154Z,5.93
2018-11-10T08:10:12.435Z,6.30
2018-11-10T08:12:43.764Z,6.51
2018-11-10T08:15:16.882Z,6.77
2018-11-10T08:17:48.846Z,6.78
2018-11-10T08:20:21.656Z,6.73
2018-11-10T08:22:53.367Z,6.64
2018-11-10T08:25:25.539Z,6.73
2018-11-10T08:27:55.721Z,6.85
2018-11-10T08:30:26.472Z,6.94
2018-11-10T08:32:57.119Z,6.98
2018-11-10T08:35:25.479Z,6.30
2018-11-10T08:37:54.049Z,7.05
2018-11-10T08:40:22.163Z,6.89
2018-11-10T08:42:50.240Z,7.13
2018-11-10T08:45:18.929Z,7.28
2018-11-10T08:47:46.976Z,7.33
2018-11-10T08:50:16.667Z,7.52
2018-11-10T08:52:44.850Z,7.57
2018-11-10T08:55:13.674Z,7.58
2018-11-10T08:57:42.626Z,7.55
2018-11-10T09:00:11.459Z,7.55
2018-11-10T09:02:39.555Z,6.48
2018-11-10T09:05:08.957Z,7.25
2018-11-10T09:07:37.400Z,7.54
2018-11-10T09:10:06.567Z,7.53
2018-11-10T09:12:35.077Z,7.56
2018-11-10T09:15:05.929Z,7.55
2018-11-10T09:17:34.155Z,7.83
2018-11-10T09:20:03.435Z,7.99
2018-11-10T09:22:31.785Z,8.18
2018-11-10T09:24:59.989Z,8.37
2018-11-10T09:27:28.255Z,8.51
2018-11-10T09:29:56.650Z,7.13
2018-11-10T09:32:25.069Z,8.76
2018-11-10T09:34:53.103Z,8.93
2018-11-10T09:37:21.255Z,9.02
2018-11-10T09:39:49.533Z,9.01
2018-11-10T09:42:17.744Z,9.20
2018-11-10T09:44:47.132Z,9.25
2018-11-10T09:47:16.249Z,9.23
2018-11-10T09:49:44.322Z,9.41
2018-11-10T09:52:12.384Z,9.53
2018-11-10T09:54:40.504Z,9.68
2018-11-10T09:57:08.584Z,9.77
2018-11-10T09:59:36.695Z,9.88
2018-11-10T10:02:06.087Z,9.70
2018-11-10T10:04:33.975Z,10.25
2018-11-10T10:07:02.077Z,10.42
2018-11-10T10:09:30.197Z,10.57
2018-11-10T10:11:58.352Z,10.58
2018-11-10T10:14:26.729Z,10.75
2018-11-10T10:16:55.179Z,10.79
2018-11-10T10:19:23.340Z,10.83
2018-11-10T10:21:51.866Z,10.91
2018-11-10T10:24:20.381Z,10.93
2018-11-10T10:26:48.460Z,11.21
2018-11-10T10:29:16.703Z,11.43
2018-11-10T10:31:45.234Z,11.58
2018-11-10T10:34:13.903Z,11.74
2018-11-10T10:36:41.920Z,11.86
2018-11-10T10:39:10.546Z,12.04
2018-11-10T10:41:39.146Z,12.23
2018-11-10T10:44:08.760Z,12.37
2018-11-10T10:46:37.109Z,12.24
2018-11-10T10:49:05.653Z,12.59
2018-11-10T10:51:33.792Z,12.57
2018-11-10T10:54:02.230Z,12.75
2018-11-10T10:56:30.824Z,12.66
2018-11-10T10:58:59.086Z,12.86
2018-11-10T11:03:34.061Z,13.01
2018-11-10T11:06:02.498Z,12.86
2018-11-10T11:08:31.717Z,13.00
2018-11-10T11:10:59.824Z,13.04
2018-11-10T11:13:28.227Z,13.14
2018-11-10T11:15:56.985Z,12.91
2018-11-10T11:18:25.080Z,13.52
2018-11-10T11:20:53.669Z,13.72
2018-11-10T11:23:24.067Z,12.29
2018-11-10T11:25:52.180Z,13.85
2018-11-10T11:28:20.621Z,13.86
2018-11-10T11:30:49.946Z,13.88
2018-11-10T11:33:18.841Z,13.92
2018-11-10T11:35:47.515Z,13.99
2018-11-10T11:38:16.154Z,14.06
2018-11-10T11:40:44.700Z,14.09
2018-11-10T11:43:12.861Z,14.06
2018-11-10T11:45:41.342Z,13.92
2018-11-10T11:48:09.528Z,13.75
2018-11-10T11:50:37.660Z,13.61
2018-11-10T11:53:06.708Z,13.69
2018-11-10T11:55:35.251Z,13.71
2018-11-10T11:58:04.178Z,12.99
2018-11-10T12:00:32.360Z,13.70
2018-11-10T12:03:01.439Z,13.33
2018-11-10T12:05:29.624Z,13.80
2018-11-10T12:07:58.153Z,13.75
2018-11-10T12:10:26.227Z,13.72
2018-11-10T12:12:54.282Z,13.71
2018-11-10T12:15:22.369Z,13.78
2018-11-10T12:17:50.805Z,13.90
2018-11-10T12:20:18.973Z,14.02
2018-11-10T12:22:47.648Z,14.05
2018-11-10T12:25:15.755Z,14.24
2018-11-10T12:27:44.276Z,14.12
2018-11-10T12:30:12.795Z,14.38
2018-11-10T12:32:41.236Z,14.46
2018-11-10T12:35:10.591Z,14.53
2018-11-10T12:37:39.121Z,14.62
2018-11-10T12:40:09.379Z,14.65
2018-11-10T12:42:38.620Z,14.66
2018-11-10T12:45:07.970Z,14.32
2018-11-10T12:47:37.237Z,14.66
2018-11-10T12:50:09.092Z,14.70
2018-11-10T12:52:37.813Z,14.70
2018-11-10T12:55:06.990Z,14.66
2018-11-10T12:57:35.968Z,13.95
2018-11-10T13:00:12.724Z,14.57
2018-11-10T13:02:42.439Z,14.56
2018-11-10T13:05:11.221Z,13.66
2018-11-10T13:07:41.565Z,14.59
2018-11-10T13:10:10.632Z,14.62
2018-11-10T13:12:40.304Z,14.66
2018-11-10T13:15:08.956Z,14.71
2018-11-10T13:17:37.404Z,14.78
2018-11-10T13:20:07.846Z,14.39
2018-11-10T13:22:36.088Z,14.87
2018-11-10T13:25:05.227Z,14.90
2018-11-10T13:27:35.353Z,14.70
2018-11-10T13:30:06.636Z,14.80
2018-11-10T13:32:35.218Z,14.72
2018-11-10T13:35:05.925Z,14.90
2018-11-10T13:37:36.354Z,14.93
2018-11-10T13:40:04.689Z,14.97
2018-11-10T13:42:33.242Z,15.00
2018-11-10T13:45:01.577Z,14.74
2018-11-10T13:47:29.949Z,14.99
2018-11-10T13:49:58.657Z,14.97
2018-11-10T13:52:27.088Z,14.97
2018-11-10T13:54:56.925Z,14.23
2018-11-10T13:57:26.130Z,14.66
2018-11-10T13:59:54.664Z,14.90
2018-11-10T14:02:23.670Z,14.89
2018-11-10T14:04:52.363Z,14.87
2018-11-10T14:07:20.428Z,14.85
2018-11-10T14:09:48.600Z,14.79
2018-11-10T14:12:17.085Z,14.63
2018-11-10T14:14:45.264Z,14.45
2018-11-10T14:17:13.797Z,14.53
2018-11-10T14:19:43.191Z,14.47
2018-11-10T14:22:11.548Z,14.44
2018-11-10T14:24:39.708Z,14.40
2018-11-10T14:27:08.268Z,14.21
2018-11-10T14:29:36.457Z,14.34
2018-11-10T14:32:05.585Z,14.11
2018-11-10T14:34:35.254Z,14.26
2018-11-10T14:37:03.365Z,14.24
2018-11-10T14:39:31.457Z,14.20
2018-11-10T14:41:59.913Z,14.13
2018-11-10T14:44:28.429Z,14.08
2018-11-10T14:46:56.556Z,14.03
2018-11-10T14:49:27.793Z,13.98
2018-11-10T14:51:56.132Z,13.94
2018-11-10T14:54:24.451Z,13.81
2018-11-10T14:56:53.334Z,13.03
2018-11-10T14:59:31.112Z,12.43
2018-11-10T15:02:00.508Z,13.76
2018-11-10T15:04:29.388Z,13.73
2018-11-10T15:06:59.347Z,13.68
2018-11-10T15:09:28.173Z,13.65
2018-11-10T15:11:56.578Z,13.60
2018-11-10T15:14:25.561Z,13.55
2018-11-10T15:16:54.353Z,13.51
2018-11-10T15:19:23.334Z,13.22
2018-11-10T15:21:51.647Z,13.27
2018-11-10T15:24:20.458Z,13.46
2018-11-10T15:26:48.945Z,13.34
2018-11-10T15:29:17.072Z,13.41
2018-11-10T15:31:46.061Z,13.37
2018-11-10T15:34:14.701Z,13.36
2018-11-10T15:36:43.761Z,13.36
2018-11-10T15:39:12.897Z,13.36
2018-11-10T15:41:41.397Z,13.34
2018-11-10T15:44:09.691Z,13.07
2018-11-10T15:46:38.222Z,12.97
2018-11-10T15:49:06.619Z,13.34
2018-11-10T15:51:36.732Z,13.35
2018-11-10T15:54:05.517Z,13.31
2018-11-10T15:56:33.916Z,13.27
2018-11-10T15:59:02.688Z,13.24
2018-11-10T16:01:31.298Z,13.23
2018-11-10T16:03:59.478Z,13.23
2018-11-10T16:06:27.612Z,13.21
2018-11-10T16:08:56.409Z,13.21
2018-11-10T16:11:24.689Z,12.83
2018-11-10T16:13:53.871Z,13.18
2018-11-10T16:16:22.322Z,13.17
2018-11-10T16:18:50.750Z,13.15
2018-11-10T16:21:20.321Z,13.12
2018-11-10T16:23:48.660Z,12.88
2018-11-10T16:26:16.903Z,13.04
2018-11-10T16:28:45.515Z,13.00
2018-11-10T16:31:13.681Z,12.97
2018-11-10T16:33:42.554Z,12.94
2018-11-10T16:36:10.665Z,12.89
2018-11-10T16:38:38.777Z,12.85
2018-11-10T16:41:06.922Z,12.82
2018-11-10T16:43:36.265Z,11.76
2018-11-10T16:46:04.889Z,12.80
2018-11-10T16:48:33.073Z,12.75
2018-11-10T16:51:01.329Z,12.72
2018-11-10T16:53:30.321Z,12.70
2018-11-10T16:55:58.424Z,12.68
2018-11-10T16:58:31.721Z,11.42
2018-11-10T17:01:00.615Z,12.65
2018-11-10T17:03:29.298Z,12.62
2018-11-10T17:05:57.596Z,12.58
2018-11-10T17:08:25.806Z,12.54
2018-11-10T17:10:55.316Z,12.53
2018-11-10T17:13:27.830Z,12.50
2018-11-10T17:15:56.049Z,12.50
2018-11-10T17:18:24.411Z,12.19
2018-11-10T17:20:52.515Z,12.47
2018-11-10T17:23:20.869Z,12.49
2018-11-10T17:25:48.980Z,12.49
2018-11-10T17:28:17.223Z,12.01
2018-11-10T17:30:45.589Z,12.30
2018-11-10T17:33:15.442Z,12.48
2018-11-10T17:35:43.599Z,12.46
2018-11-10T17:38:11.840Z,12.33
2018-11-10T17:40:40.474Z,12.41
2018-11-10T17:43:10.009Z,10.52
2018-11-10T17:45:38.057Z,12.31
2018-11-10T17:48:06.523Z,12.30
2018-11-10T17:50:34.626Z,12.10
2018-11-10T17:53:03.021Z,11.80
2018-11-10T17:55:31.525Z,12.28
2018-11-10T17:57:59.772Z,12.27
2018-11-10T18:00:27.842Z,12.22
2018-11-10T18:02:56.276Z,12.24
2018-11-10T18:05:24.524Z,12.19
2018-11-10T18:07:52.625Z,12.20
2018-11-10T18:10:21.337Z,12.26
2018-11-10T18:12:50.721Z,12.31
2018-11-10T18:15:18.858Z,12.35
2018-11-10T18:17:47.479Z,12.38
2018-11-10T18:20:16.561Z,12.39
2018-11-10T18:22:44.996Z,12.37
2018-11-10T18:25:13.639Z,12.34
2018-11-10T18:27:41.830Z,12.35
2018-11-10T18:30:11.598Z,12.33
2018-11-10T18:32:40.440Z,12.33
2018-11-10T18:35:09.315Z,12.33
2018-11-10T18:37:37.394Z,12.31
2018-11-10T18:40:06.938Z,12.29
2018-11-10T18:42:34.978Z,12.24
2018-11-10T18:45:04.208Z,12.22
2018-11-10T18:47:32.624Z,12.19
2018-11-10T18:50:00.763Z,12.18
2018-11-10T18:52:29.093Z,12.16
2018-11-10T18:54:57.511Z,12.14
2018-11-10T18:57:25.898Z,11.73
2018-11-10T18:59:55.255Z,12.12
2018-11-10T19:02:23.840Z,12.15
2018-11-10T19:04:52.184Z,11.87
2018-11-10T19:07:20.460Z,12.20
2018-11-10T19:09:48.969Z,12.25
2018-11-10T19:12:17.143Z,12.33
2018-11-10T19:14:45.285Z,11.63
2018-11-10T19:17:13.364Z,12.40
2018-11-10T19:19:41.535Z,12.43
2018-11-10T19:22:09.894Z,12.45
2018-11-10T19:24:37.998Z,12.48
2018-11-10T19:27:06.250Z,12.50
2018-11-10T19:29:34.809Z,12.51
2018-11-10T19:32:02.906Z,12.53
2018-11-10T19:34:31.048Z,12.47
2018-11-10T19:36:59.120Z,12.58
2018-11-10T19:39:27.385Z,12.54
2018-11-10T19:41:55.491Z,12.52
2018-11-10T19:44:25.146Z,12.53
2018-11-10T19:46:53.240Z,12.56
2018-11-10T19:49:22.082Z,12.63
2018-11-10T19:51:52.455Z,12.58
2018-11-10T19:54:20.276Z,12.73
2018-11-10T19:56:48.366Z,12.78
2018-11-10T19:59:16.912Z,12.82
2018-11-10T20:01:45.008Z,12.85
2018-11-10T20:04:13.442Z,12.87
2018-11-10T20:06:41.702Z,12.87
2018-11-10T20:09:10.382Z,12.86
2018-11-10T20:11:38.513Z,12.86
2018-11-10T20:14:07.530Z,12.83
2018-11-10T20:16:35.667Z,12.86
2018-11-10T20:19:03.855Z,12.83
2018-11-10T20:21:31.943Z,12.72
2018-11-10T20:24:00.115Z,12.82
2018-11-10T20:26:28.390Z,12.82
2018-11-10T20:28:56.915Z,12.80
2018-11-10T20:31:24.968Z,12.74
2018-11-10T20:33:53.145Z,12.72
2018-11-10T20:36:21.373Z,12.69
2018-11-10T20:38:49.629Z,12.66
2018-11-10T20:41:17.777Z,12.64
2018-11-10T20:43:46.294Z,12.60
2018-11-10T20:46:14.375Z,12.58
2018-11-10T20:48:42.987Z,12.54
2018-11-10T20:51:11.645Z,12.49
2018-11-10T20:53:39.768Z,12.44
2018-11-10T20:56:07.857Z,12.41
2018-11-10T20:58:36.345Z,12.36
2018-11-10T21:01:04.489Z,12.23
2018-11-10T21:03:32.792Z,12.31
2018-11-10T21:06:01.845Z,12.27
2018-11-10T21:08:29.970Z,12.26
2018-11-10T21:10:58.117Z,12.23
2018-11-10T21:13:26.681Z,12.19
2018-11-10T21:15:54.774Z,12.18
2018-11-10T21:18:23.523Z,12.15
2018-11-10T21:20:52.076Z,12.12
2018-11-10T21:23:20.132Z,12.10
2018-11-10T21:25:48.205Z,12.09
2018-11-10T21:28:16.844Z,12.09
2018-11-10T21:30:44.944Z,12.10
2018-11-10T21:33:13.136Z,12.10
2018-11-10T21:35:41.619Z,12.08
2018-11-10T21:38:09.606Z,12.07
2018-11-10T21:40:37.763Z,12.04
2018-11-10T21:43:06.264Z,11.93
2018-11-10T21:45:34.391Z,12.03
2018-11-10T21:48:02.532Z,12.02
2018-11-10T21:50:31.022Z,12.00
2018-11-10T21:52:59.177Z,11.98
2018-11-10T21:55:27.297Z,11.95
2018-11-10T21:57:55.535Z,11.94
2018-11-10T22:00:23.754Z,11.94
2018-11-10T22:02:53.737Z,11.05
2018-11-10T22:05:21.836Z,11.92
2018-11-10T22:07:49.962Z,11.91
2018-11-10T22:10:19.044Z,11.87
2018-11-10T22:12:47.229Z,11.89
2018-11-10T22:15:16.726Z,11.90
2018-11-10T22:17:45.264Z,11.92
2018-11-10T22:20:14.683Z,11.93
2018-11-10T22:22:42.790Z,11.93
2018-11-10T22:25:12.029Z,11.92
2018-11-10T22:27:41.486Z,11.72
2018-11-10T22:30:11.949Z,11.91
2018-11-10T22:32:40.469Z,11.90
2018-11-10T22:35:09.139Z,11.91
2018-11-10T22:37:37.415Z,11.91
2018-11-10T22:40:08.650Z,11.89
2018-11-10T22:42:37.555Z,11.90
2018-11-10T22:45:06.476Z,11.88
2018-11-10T22:47:34.580Z,11.86
2018-11-10T22:50:02.725Z,11.85
2018-11-10T22:52:30.955Z,11.81
2018-11-10T22:54:59.471Z,11.80
2018-11-10T22:57:27.524Z,11.79
2018-11-10T22:59:55.641Z,11.79
2018-11-10T23:02:23.762Z,11.76
2018-11-10T23:04:52.000Z,11.66
2018-11-10T23:07:20.379Z,11.67
2018-11-10T23:09:49.044Z,11.78
2018-11-10T23:12:17.229Z,11.82
2018-11-10T23:14:45.364Z,11.87
2018-11-10T23:17:13.560Z,11.92
2018-11-10T23:19:41.627Z,11.95
2018-11-10T23:22:09.731Z,11.99
2018-11-10T23:24:38.158Z,12.03
2018-11-10T23:27:06.249Z,12.02
2018-11-10T23:29:34.312Z,12.03
2018-11-10T23:32:02.428Z,12.03
2018-11-10T23:34:30.500Z,12.01
2018-11-10T23:36:58.597Z,12.04
2018-11-10T23:39:27.001Z,12.03
2018-11-10T23:41:55.110Z,12.07
2018-11-10T23:44:23.836Z,11.49
2018-11-10T23:46:53.024Z,12.07
2018-11-10T23:49:21.151Z,12.09
2018-11-10T23:51:49.390Z,12.09
2018-11-10T23:54:17.936Z,12.11
2018-11-10T23:56:45.974Z,12.11
2018-11-10T23:59:14.082Z,12.11
